createdAt,value
2022-11-29T00:00:42.879Z,5.41
2022-11-29T00:03:22.869Z,5.42
2022-11-29T00:05:53.405Z,5.42
2022-11-29T00:08:22.933Z,5.44
2022-11-29T00:10:51.926Z,5.40
2022-11-29T00:13:21.290Z,5.40
2022-11-29T00:15:50.311Z,5.40
2022-11-29T00:18:19.708Z,5.40
2022-11-29T00:20:50.119Z,5.36
2022-11-29T00:23:19.384Z,5.39
2022-11-29T00:25:48.477Z,5.39
2022-11-29T00:28:17.935Z,5.36
2022-11-29T00:30:47.484Z,5.37
2022-11-29T00:33:16.899Z,5.36
2022-11-29T00:35:45.916Z,5.36
2022-11-29T00:38:16.657Z,5.32
2022-11-29T00:40:45.635Z,5.33
2022-11-29T00:43:15.067Z,5.34
2022-11-29T00:45:44.069Z,5.34
2022-11-29T00:48:13.439Z,5.29
2022-11-29T00:50:42.469Z,5.27
2022-11-29T00:53:11.923Z,5.30
2022-11-29T00:55:42.421Z,5.31
2022-11-29T00:58:11.865Z,5.33
2022-11-29T01:00:40.838Z,5.32
2022-11-29T01:03:10.299Z,5.28
2022-11-29T01:05:39.357Z,5.24
2022-11-29T01:08:08.734Z,5.26
2022-11-29T01:10:37.740Z,5.26
2022-11-29T01:13:08.518Z,5.28
2022-11-29T01:15:37.623Z,5.25
2022-11-29T01:18:07.166Z,5.24
2022-11-29T01:20:36.177Z,5.23
2022-11-29T01:23:05.556Z,5.22
2022-11-29T01:25:34.633Z,5.14
2022-11-29T01:28:03.919Z,5.08
2022-11-29T01:30:34.587Z,5.15
2022-11-29T01:33:04.291Z,5.14
2022-11-29T01:35:33.306Z,5.14
2022-11-29T01:38:02.661Z,5.15
2022-11-29T01:40:31.692Z,5.18
2022-11-29T01:43:00.964Z,5.14
2022-11-29T01:45:30.102Z,5.14
2022-11-29T01:48:00.862Z,5.12
2022-11-29T01:50:29.957Z,5.14
2022-11-29T01:52:59.343Z,5.14
2022-11-29T01:55:28.419Z,5.10
2022-11-29T01:57:57.813Z,5.10
2022-11-29T02:00:26.853Z,5.10
2022-11-29T02:02:57.418Z,5.08
2022-11-29T02:05:27.924Z,5.10
2022-11-29T02:07:57.601Z,5.12
2022-11-29T02:10:27.236Z,5.10
2022-11-29T02:12:59.771Z,5.06
2022-11-29T02:15:30.963Z,5.10
2022-11-29T02:18:04.259Z,5.10
2022-11-29T02:20:51.968Z,5.09
2022-11-29T02:23:39.472Z,5.09
2022-11-29T02:26:12.906Z,5.11
2022-11-29T02:29:12.311Z,5.08
2022-11-29T02:31:55.928Z,5.08
2022-11-29T02:34:40.125Z,5.08
2022-11-29T02:37:16.083Z,5.06
2022-11-29T02:39:49.179Z,5.06
2022-11-29T02:42:22.943Z,5.03
2022-11-29T02:44:55.575Z,4.91
2022-11-29T02:47:26.991Z,4.98
2022-11-29T02:50:03.799Z,4.97
2022-11-29T02:52:37.272Z,5.01
2022-11-29T02:55:07.842Z,5.05
2022-11-29T02:57:37.922Z,5.02
2022-11-29T03:00:08.519Z,5.02
2022-11-29T03:02:39.876Z,4.99
2022-11-29T03:05:11.676Z,4.98
2022-11-29T03:07:42.970Z,4.97
2022-11-29T03:10:13.579Z,4.96
2022-11-29T03:12:43.275Z,4.97
2022-11-29T03:15:17.630Z,5.01
2022-11-29T03:17:49.112Z,4.92
2022-11-29T03:20:28.596Z,4.91
2022-11-29T03:23:05.424Z,4.81
2022-11-29T03:25:35.332Z,4.86
2022-11-29T03:28:05.772Z,4.83
2022-11-29T03:30:36.188Z,4.81
2022-11-29T03:33:06.387Z,4.83
2022-11-29T03:35:38.348Z,4.77
2022-11-29T03:38:10.374Z,4.77
2022-11-29T03:40:41.377Z,4.78
2022-11-29T03:43:10.920Z,4.77
2022-11-29T03:45:40.812Z,4.75
2022-11-29T03:48:11.073Z,4.76
2022-11-29T03:50:40.810Z,4.79
2022-11-29T03:53:14.340Z,4.79
2022-11-29T03:55:50.921Z,4.78
2022-11-29T03:58:25.866Z,4.68
2022-11-29T04:01:01.628Z,4.73
2022-11-29T04:03:48.278Z,4.70
2022-11-29T04:06:20.501Z,4.70
2022-11-29T04:09:10.450Z,4.69
2022-11-29T04:11:59.266Z,4.68
2022-11-29T04:14:36.746Z,4.65
2022-11-29T04:17:13.470Z,4.62
2022-11-29T04:20:00.319Z,4.63
2022-11-29T04:22:44.454Z,4.67
2022-11-29T04:25:28.296Z,4.68
2022-11-29T04:28:15.533Z,4.66
2022-11-29T04:30:48.754Z,4.61
2022-11-29T04:33:35.699Z,4.63
2022-11-29T04:36:08.263Z,4.62
2022-11-29T04:38:49.103Z,4.56
2022-11-29T04:41:42.211Z,4.57
2022-11-29T04:44:18.418Z,4.55
2022-11-29T04:46:52.214Z,4.52
2022-11-29T04:49:27.382Z,4.55
2022-11-29T04:52:26.195Z,4.55
2022-11-29T04:54:58.626Z,4.51
2022-11-29T04:57:28.943Z,4.47
2022-11-29T05:00:00.932Z,4.49
2022-11-29T05:02:33.875Z,4.47
2022-11-29T05:05:05.644Z,4.44
2022-11-29T05:07:36.326Z,4.49
2022-11-29T05:10:08.144Z,4.50
2022-11-29T05:12:39.531Z,4.47
2022-11-29T05:15:33.179Z,4.43
2022-11-29T05:18:06.513Z,4.46
2022-11-29T05:20:37.808Z,4.46
2022-11-29T05:23:12.405Z,4.38
2022-11-29T05:25:43.925Z,4.40
2022-11-29T05:28:14.042Z,4.24
2022-11-29T05:30:55.853Z,4.08
2022-11-29T05:33:29.665Z,4.17
2022-11-29T05:36:01.844Z,4.27
2022-11-29T05:38:54.884Z,4.25
2022-11-29T05:41:39.021Z,4.31
2022-11-29T05:44:09.428Z,4.32
2022-11-29T05:46:41.395Z,4.35
2022-11-29T05:49:16.351Z,4.33
2022-11-29T05:51:47.448Z,4.34
2022-11-29T05:54:19.824Z,4.35
2022-11-29T05:56:50.349Z,4.34
2022-11-29T05:59:19.771Z,4.40
2022-11-29T06:01:51.582Z,4.38
2022-11-29T06:04:23.241Z,4.29
2022-11-29T06:06:54.386Z,4.35
2022-11-29T06:09:24.590Z,4.27
2022-11-29T06:11:55.054Z,4.23
2022-11-29T06:14:28.841Z,4.26
2022-11-29T06:17:11.323Z,4.19
2022-11-29T06:20:14.461Z,4.19
2022-11-29T06:22:55.949Z,4.23
2022-11-29T06:25:27.947Z,4.24
2022-11-29T06:28:00.456Z,4.26
2022-11-29T06:30:30.240Z,4.13
2022-11-29T06:33:02.707Z,4.14
2022-11-29T06:35:38.032Z,4.09
2022-11-29T06:38:11.446Z,4.08
2022-11-29T06:40:40.692Z,4.08
2022-11-29T06:43:10.271Z,4.09
2022-11-29T06:45:39.364Z,4.11
2022-11-29T06:48:08.726Z,4.05
2022-11-29T06:50:44.718Z,4.07
2022-11-29T06:53:16.871Z,4.09
2022-11-29T06:55:48.346Z,4.07
2022-11-29T06:58:24.167Z,4.04
2022-11-29T07:00:54.007Z,4.05
2022-11-29T07:03:26.983Z,4.09
2022-11-29T07:05:56.397Z,4.11
2022-11-29T07:08:27.601Z,4.12
2022-11-29T07:10:56.990Z,4.09
2022-11-29T07:13:26.755Z,4.05
2022-11-29T07:15:58.597Z,4.03
2022-11-29T07:18:29.745Z,4.05
2022-11-29T07:21:01.558Z,4.07
2022-11-29T07:23:35.421Z,4.03
2022-11-29T07:26:07.659Z,4.04
2022-11-29T07:28:40.709Z,4.04
2022-11-29T07:31:10.666Z,4.01
2022-11-29T07:33:42.627Z,3.99
2022-11-29T07:36:12.997Z,3.93
2022-11-29T07:38:48.794Z,3.91
2022-11-29T07:41:19.005Z,3.90
2022-11-29T07:43:49.443Z,3.91
2022-11-29T07:46:18.606Z,3.94
2022-11-29T07:48:48.005Z,3.96
2022-11-29T07:51:17.119Z,3.99
2022-11-29T07:53:46.544Z,4.01
2022-11-29T07:56:17.508Z,4.01
2022-11-29T07:58:47.052Z,3.97
2022-11-29T08:01:16.160Z,3.98
2022-11-29T08:03:45.571Z,3.99
2022-11-29T08:06:14.568Z,3.96
2022-11-29T08:08:44.449Z,3.92
2022-11-29T08:11:13.790Z,3.93
2022-11-29T08:13:44.584Z,3.92
2022-11-29T08:16:16.838Z,3.90
2022-11-29T08:18:46.395Z,3.92
2022-11-29T08:21:18.276Z,3.93
2022-11-29T08:23:47.852Z,3.97
2022-11-29T08:26:17.057Z,3.92
2022-11-29T08:28:51.857Z,3.94
2022-11-29T08:31:21.150Z,3.93
2022-11-29T08:33:50.560Z,3.95
2022-11-29T08:36:20.529Z,3.98
2022-11-29T08:38:52.841Z,3.98
2022-11-29T08:41:26.310Z,3.99
2022-11-29T08:43:57.307Z,4.00
2022-11-29T08:46:47.043Z,4.01
2022-11-29T08:49:16.414Z,4.06
2022-11-29T08:51:45.563Z,4.08
2022-11-29T08:54:13.906Z,4.07
2022-11-29T08:57:23.543Z,4.01
2022-11-29T08:59:33.632Z,4.08
2022-11-29T09:02:04.965Z,4.05
2022-11-29T09:04:34.383Z,4.10
2022-11-29T09:07:03.443Z,4.12
2022-11-29T09:09:32.882Z,4.14
2022-11-29T09:12:01.906Z,4.12
2022-11-29T09:14:31.323Z,4.12
2022-11-29T09:17:01.749Z,4.14
2022-11-29T09:19:31.300Z,4.13
2022-11-29T09:22:00.347Z,4.11
2022-11-29T09:24:29.700Z,4.14
2022-11-29T09:26:58.713Z,4.16
2022-11-29T09:29:28.363Z,4.21
2022-11-29T09:31:57.521Z,4.19
2022-11-29T09:34:28.626Z,4.19
2022-11-29T09:36:57.656Z,4.24
2022-11-29T09:39:27.475Z,4.27
2022-11-29T09:42:09.969Z,4.30
2022-11-29T09:44:43.028Z,4.30
2022-11-29T09:47:16.664Z,4.32
2022-11-29T09:50:03.255Z,4.32
2022-11-29T09:52:35.780Z,4.34
2022-11-29T09:55:08.311Z,4.39
2022-11-29T09:57:37.354Z,4.42
2022-11-29T10:00:08.115Z,4.43
2022-11-29T10:02:38.173Z,4.45
2022-11-29T10:05:10.262Z,4.45
2022-11-29T10:07:39.920Z,4.47
2022-11-29T10:10:09.754Z,4.48
2022-11-29T10:12:39.596Z,4.50
2022-11-29T10:15:14.064Z,4.51
2022-11-29T10:17:43.634Z,4.53
2022-11-29T10:20:16.870Z,4.53
2022-11-29T10:22:49.437Z,4.53
2022-11-29T10:25:20.720Z,4.58
2022-11-29T10:27:49.818Z,4.57
2022-11-29T10:30:19.785Z,4.60
2022-11-29T10:32:49.937Z,4.56
2022-11-29T10:35:21.830Z,4.59
2022-11-29T10:38:14.568Z,4.60
2022-11-29T10:40:40.801Z,4.63
2022-11-29T10:43:09.755Z,4.65
2022-11-29T10:45:43.362Z,4.65
2022-11-29T10:48:13.438Z,4.69
2022-11-29T10:50:45.263Z,4.71
2022-11-29T10:53:15.302Z,4.68
2022-11-29T10:55:45.284Z,4.64
2022-11-29T10:58:23.288Z,4.66
2022-11-29T11:00:56.223Z,4.67
2022-11-29T11:03:29.898Z,4.71
2022-11-29T11:06:01.505Z,4.74
2022-11-29T11:08:30.744Z,4.77
2022-11-29T11:11:02.015Z,4.78
2022-11-29T11:13:32.215Z,4.75
2022-11-29T11:16:09.147Z,4.74
2022-11-29T11:18:38.464Z,4.78
2022-11-29T11:21:11.249Z,4.78
2022-11-29T11:23:47.021Z,4.80
2022-11-29T11:26:16.405Z,4.75
2022-11-29T11:28:49.629Z,4.71
2022-11-29T11:31:26.305Z,4.77
2022-11-29T11:33:55.340Z,4.77
2022-11-29T11:36:27.383Z,4.77
2022-11-29T11:38:57.799Z,4.63
2022-11-29T11:41:48.820Z,4.71
2022-11-29T11:44:48.953Z,4.72
2022-11-29T11:47:14.747Z,4.71
2022-11-29T11:49:48.082Z,4.75
2022-11-29T11:52:20.476Z,4.77
2022-11-29T11:54:50.935Z,4.72
2022-11-29T11:57:20.407Z,4.74
2022-11-29T11:59:49.778Z,4.77
2022-11-29T12:02:26.419Z,4.78
2022-11-29T12:04:55.771Z,4.70
2022-11-29T12:07:45.428Z,4.69
2022-11-29T12:10:18.959Z,4.71
2022-11-29T12:12:48.643Z,4.73
2022-11-29T12:15:18.973Z,4.67
2022-11-29T12:17:49.688Z,4.64
2022-11-29T12:20:20.512Z,4.72
2022-11-29T12:23:05.146Z,4.75
2022-11-29T12:25:35.937Z,4.78
2022-11-29T12:28:05.464Z,4.79
2022-11-29T12:30:34.480Z,4.82
2022-11-29T12:33:14.249Z,4.79
2022-11-29T12:35:55.399Z,4.75
2022-11-29T12:38:38.814Z,4.74
2022-11-29T12:41:09.175Z,4.80
2022-11-29T12:43:41.165Z,4.79
2022-11-29T12:46:11.695Z,4.81
2022-11-29T12:48:43.032Z,4.75
2022-11-29T12:51:13.683Z,4.78
2022-11-29T12:53:48.959Z,4.77
2022-11-29T12:56:27.754Z,4.70
2022-11-29T12:59:03.993Z,4.76
2022-11-29T13:01:35.013Z,4.78
2022-11-29T13:04:10.626Z,4.76
2022-11-29T13:20:08.671Z,4.79
2022-11-29T13:22:40.593Z,4.81
2022-11-29T13:25:13.712Z,4.77
2022-11-29T13:27:44.927Z,4.77
2022-11-29T13:30:15.372Z,4.79
2022-11-29T13:32:45.815Z,4.80
2022-11-29T13:35:18.578Z,4.78
2022-11-29T13:37:54.942Z,4.82
2022-11-29T13:40:27.063Z,4.78
2022-11-29T13:42:59.395Z,4.75
2022-11-29T13:45:29.945Z,4.73
2022-11-29T13:47:59.673Z,4.71
2022-11-29T13:50:39.150Z,4.71
2022-11-29T13:53:14.815Z,4.69
2022-11-29T13:55:47.401Z,4.67
2022-11-29T13:58:36.218Z,4.70
2022-11-29T14:01:07.509Z,4.66
2022-11-29T14:03:40.397Z,4.62
2022-11-29T14:06:13.933Z,4.63
2022-11-29T14:09:17.968Z,4.61
2022-11-29T14:11:50.280Z,4.59
2022-11-29T14:14:21.315Z,4.58
2022-11-29T14:16:51.106Z,4.49
2022-11-29T14:19:27.640Z,4.54
2022-11-29T14:22:26.030Z,4.57
2022-11-29T14:25:00.275Z,4.53
2022-11-29T14:28:02.452Z,4.51
2022-11-29T14:30:46.646Z,4.51
2022-11-29T14:33:20.821Z,4.48
2022-11-29T14:35:50.586Z,4.54
2022-11-29T14:38:20.457Z,4.58
2022-11-29T14:40:51.468Z,4.58
2022-11-29T14:43:22.620Z,4.59
2022-11-29T14:46:06.981Z,4.60
2022-11-29T14:48:38.391Z,4.60
2022-11-29T14:51:11.110Z,4.58
2022-11-29T14:53:40.124Z,4.42
2022-11-29T14:56:28.014Z,4.46
2022-11-29T14:59:11.898Z,4.54
2022-11-29T15:01:43.283Z,4.49
2022-11-29T15:04:14.086Z,4.47
2022-11-29T15:06:47.603Z,4.50
2022-11-29T15:09:21.921Z,4.56
2022-11-29T15:11:52.219Z,4.57
2022-11-29T15:14:22.025Z,4.62
2022-11-29T15:16:57.441Z,4.60
2022-11-29T15:19:41.979Z,4.57
2022-11-29T15:22:14.277Z,4.61
2022-11-29T15:24:55.817Z,4.60
2022-11-29T15:27:25.798Z,4.62
2022-11-29T15:29:54.933Z,4.63
2022-11-29T15:32:26.040Z,4.66
2022-11-29T15:34:57.046Z,4.62
2022-11-29T15:37:39.630Z,4.60
2022-11-29T15:40:12.033Z,4.61
2022-11-29T15:42:42.410Z,4.58
2022-11-29T15:45:30.887Z,4.62
2022-11-29T15:48:13.737Z,4.56
2022-11-29T15:50:45.248Z,4.58
2022-11-29T15:53:16.761Z,4.52
2022-11-29T15:55:45.783Z,4.52
2022-11-29T15:58:15.157Z,4.55
2022-11-29T16:00:44.433Z,4.49
2022-11-29T16:03:17.363Z,4.51
2022-11-29T16:05:49.696Z,4.42
2022-11-29T16:08:19.518Z,4.44
2022-11-29T16:10:50.493Z,4.45
2022-11-29T16:13:37.336Z,4.44
2022-11-29T16:16:07.816Z,4.46
2022-11-29T16:18:37.228Z,4.44
2022-11-29T16:21:08.412Z,4.42
2022-11-29T16:23:38.225Z,4.38
2022-11-29T16:26:09.919Z,4.36
2022-11-29T16:28:42.763Z,4.37
2022-11-29T16:31:17.988Z,4.40
2022-11-29T16:33:49.140Z,4.37
2022-11-29T16:36:20.717Z,4.41
2022-11-29T16:38:50.874Z,4.36
2022-11-29T16:41:23.584Z,4.21
2022-11-29T16:43:55.402Z,4.22
2022-11-29T16:46:31.444Z,4.27
2022-11-29T16:49:03.812Z,4.27
2022-11-29T16:51:40.002Z,4.33
2022-11-29T16:54:23.135Z,4.29
2022-11-29T16:56:52.525Z,4.23
2022-11-29T16:59:27.413Z,4.23
2022-11-29T17:01:57.266Z,4.24
2022-11-29T17:04:26.765Z,4.20
2022-11-29T17:06:57.401Z,4.25
2022-11-29T17:09:27.385Z,4.19
2022-11-29T17:11:56.638Z,4.21
2022-11-29T17:14:26.128Z,4.21
2022-11-29T17:16:55.189Z,4.16
2022-11-29T17:19:24.687Z,4.15
2022-11-29T17:21:53.854Z,4.12
2022-11-29T17:24:24.737Z,4.10
2022-11-29T17:26:53.723Z,4.11
2022-11-29T17:29:23.121Z,4.13
2022-11-29T17:31:53.331Z,4.16
2022-11-29T17:34:22.871Z,4.16
2022-11-29T17:36:52.215Z,4.07
2022-11-29T17:39:22.765Z,4.12
2022-11-29T17:41:53.259Z,4.16
2022-11-29T17:44:23.042Z,4.20
2022-11-29T17:46:52.178Z,4.16
2022-11-29T17:49:21.575Z,4.19
2022-11-29T17:51:52.588Z,4.20
2022-11-29T17:54:22.953Z,4.18
2022-11-29T17:56:53.488Z,4.20
2022-11-29T17:59:23.416Z,4.24
2022-11-29T18:01:58.674Z,4.23
2022-11-29T18:04:30.971Z,4.25
2022-11-29T18:07:01.547Z,4.26
2022-11-29T18:09:30.923Z,4.19
2022-11-29T18:12:01.344Z,4.20
2022-11-29T18:14:31.135Z,4.24
2022-11-29T18:17:00.260Z,4.22
2022-11-29T18:19:30.043Z,4.22
2022-11-29T18:21:59.109Z,4.18
2022-11-29T18:24:28.480Z,4.14
2022-11-29T18:26:57.438Z,4.21
2022-11-29T18:29:31.541Z,4.23
2022-11-29T18:32:05.424Z,4.23
2022-11-29T18:34:35.036Z,4.29
2022-11-29T18:37:04.124Z,4.29
2022-11-29T18:39:33.589Z,4.24
2022-11-29T18:42:02.798Z,4.27
2022-11-29T18:44:33.808Z,4.25
2022-11-29T18:47:04.077Z,4.25
2022-11-29T18:49:33.772Z,4.26
2022-11-29T18:52:03.148Z,4.26
2022-11-29T18:54:32.958Z,4.27
2022-11-29T18:57:02.275Z,4.22
2022-11-29T18:59:31.929Z,4.18
2022-11-29T19:02:02.963Z,4.21
2022-11-29T19:04:33.127Z,4.19
2022-11-29T19:07:02.316Z,4.20
2022-11-29T19:09:31.655Z,4.16
2022-11-29T19:12:02.414Z,4.15
2022-11-29T19:14:32.544Z,4.16
2022-11-29T19:17:03.011Z,4.12
2022-11-29T19:19:32.477Z,4.11
2022-11-29T19:22:01.479Z,4.11
2022-11-29T19:24:30.938Z,4.13
2022-11-29T19:27:01.218Z,4.11
2022-11-29T19:29:32.952Z,4.10
2022-11-29T19:32:08.631Z,4.12
2022-11-29T19:34:38.060Z,4.07
2022-11-29T19:37:09.760Z,4.10
2022-11-29T19:39:39.161Z,4.09
2022-11-29T19:42:08.366Z,4.09
2022-11-29T19:45:08.742Z,4.08
2022-11-29T19:47:28.102Z,4.10
2022-11-29T19:50:02.201Z,4.07
2022-11-29T19:52:31.721Z,4.08
2022-11-29T19:55:01.199Z,4.07
2022-11-29T19:57:30.223Z,4.06
2022-11-29T19:59:59.793Z,4.06
2022-11-29T20:02:30.392Z,4.07
2022-11-29T20:04:59.966Z,4.04
2022-11-29T20:07:29.095Z,3.99
2022-11-29T20:09:58.612Z,4.01
2022-11-29T20:12:27.728Z,3.98
2022-11-29T20:14:57.218Z,4.01
2022-11-29T20:17:26.273Z,3.92
2022-11-29T20:19:57.255Z,3.81
2022-11-29T20:22:26.537Z,3.89
2022-11-29T20:24:56.259Z,3.92
2022-11-29T20:27:25.431Z,3.93
2022-11-29T20:29:54.938Z,3.95
2022-11-29T20:32:24.094Z,3.93
2022-11-29T20:34:53.893Z,3.93
2022-11-29T20:37:41.111Z,3.96
2022-11-29T20:40:13.668Z,3.94
2022-11-29T20:42:51.670Z,3.93
2022-11-29T20:45:21.369Z,3.91
2022-11-29T20:47:52.201Z,3.94
2022-11-29T20:50:23.811Z,3.92
2022-11-29T20:52:56.772Z,3.90
2022-11-29T20:55:27.603Z,3.89
2022-11-29T20:57:56.684Z,3.95
2022-11-29T21:00:26.270Z,3.94
2022-11-29T21:02:55.435Z,3.95
2022-11-29T21:05:24.852Z,3.93
2022-11-29T21:07:53.950Z,3.92
2022-11-29T21:10:23.353Z,3.90
2022-11-29T21:12:54.161Z,3.96
2022-11-29T21:15:23.868Z,3.93
2022-11-29T21:17:53.304Z,3.92
2022-11-29T21:20:23.859Z,3.95
2022-11-29T21:22:54.577Z,3.95
2022-11-29T21:25:27.035Z,3.93
2022-11-29T21:27:57.638Z,3.91
2022-11-29T21:30:27.179Z,3.93
2022-11-29T21:32:56.560Z,3.91
2022-11-29T21:35:26.411Z,3.93
2022-11-29T21:37:55.919Z,3.95
2022-11-29T21:40:25.739Z,3.95
2022-11-29T21:42:54.793Z,3.96
2022-11-29T21:45:25.669Z,3.98
2022-11-29T21:47:54.679Z,3.98
2022-11-29T21:50:23.922Z,3.98
2022-11-29T21:52:53.181Z,3.95
2022-11-29T21:55:22.595Z,3.94
2022-11-29T21:57:51.676Z,3.97
2022-11-29T22:00:21.606Z,3.94
2022-11-29T22:02:52.171Z,3.96
2022-11-29T22:05:21.793Z,3.95
2022-11-29T22:07:50.894Z,3.94
2022-11-29T22:10:20.333Z,3.96
2022-11-29T22:12:52.171Z,3.99
2022-11-29T22:15:25.044Z,4.03
2022-11-29T22:17:56.412Z,4.03
2022-11-29T22:20:25.748Z,4.05
2022-11-29T22:22:58.684Z,4.06
2022-11-29T22:25:28.372Z,4.06
2022-11-29T22:27:57.412Z,4.08
2022-11-29T22:30:26.895Z,4.08
2022-11-29T22:32:58.415Z,4.09
2022-11-29T22:35:27.886Z,4.12
2022-11-29T22:37:56.964Z,4.11
2022-11-29T22:40:26.363Z,4.08
2022-11-29T22:42:55.384Z,4.10
2022-11-29T22:45:24.867Z,4.12
2022-11-29T22:47:53.892Z,4.13
2022-11-29T22:50:25.747Z,4.10
2022-11-29T22:52:54.873Z,4.11
2022-11-29T22:55:24.252Z,4.10
2022-11-29T22:57:54.359Z,4.11
2022-11-29T23:00:23.802Z,4.09
2022-11-29T23:02:52.805Z,4.07
2022-11-29T23:05:22.230Z,4.11
2022-11-29T23:07:56.358Z,4.12
2022-11-29T23:10:25.856Z,4.15
2022-11-29T23:12:54.877Z,4.13
2022-11-29T23:15:24.296Z,4.12
2022-11-29T23:17:53.533Z,4.13
2022-11-29T23:20:22.880Z,4.15
2022-11-29T23:22:51.946Z,4.17
2022-11-29T23:25:22.756Z,4.16
2022-11-29T23:27:54.090Z,4.15
2022-11-29T23:30:23.441Z,4.18
2022-11-29T23:32:52.508Z,4.15
2022-11-29T23:35:22.551Z,4.14
2022-11-29T23:37:51.576Z,4.15
2022-11-29T23:40:22.295Z,4.18
2022-11-29T23:42:52.220Z,4.21
2022-11-29T23:45:21.567Z,4.18
2022-11-29T23:47:50.620Z,4.18
2022-11-29T23:50:19.982Z,4.18
2022-11-29T23:52:52.971Z,4.18
2022-11-29T23:55:24.013Z,4.18
2022-11-29T23:57:53.091Z,4.19
